sensor_id;sensor_type;location;lat;lon;timestamp;pressure;altitude;pressure_sealevel;temperature;humidity
63281;BME280;49406;51.044;3.766;2022-08-03T00:01:42;101663.57;;;19.20;78.94
63281;BME280;49406;51.044;3.766;2022-08-03T00:04:17;101661.67;;;19.16;79.50
63281;BME280;49406;51.044;3.766;2022-08-03T00:06:51;101660.85;;;19.11;79.82
63281;BME280;49406;51.044;3.766;2022-08-03T00:09:26;101661.09;;;19.06;80.01
63281;BME280;49406;51.044;3.766;2022-08-03T00:12:00;101658.08;;;19.07;79.98
63281;BME280;49406;51.044;3.766;2022-08-03T00:14:35;101659.08;;;19.10;79.78
63281;BME280;49406;51.044;3.766;2022-08-03T00:17:09;101660.58;;;19.06;80.41
63281;BME280;49406;51.044;3.766;2022-08-03T00:19:44;101659.77;;;19.00;80.65
63281;BME280;49406;51.044;3.766;2022-08-03T00:22:18;101655.73;;;18.96;80.85
63281;BME280;49406;51.044;3.766;2022-08-03T00:24:53;101658.45;;;18.91;81.16
63281;BME280;49406;51.044;3.766;2022-08-03T00:27:27;101653.07;;;18.97;80.80
63281;BME280;49406;51.044;3.766;2022-08-03T00:30:02;101646.71;;;18.95;81.53
63281;BME280;49406;51.044;3.766;2022-08-03T00:32:37;101649.92;;;18.94;81.34
63281;BME280;49406;51.044;3.766;2022-08-03T00:35:11;101645.72;;;18.90;81.70
63281;BME280;49406;51.044;3.766;2022-08-03T00:37:46;101647.75;;;18.84;81.86
63281;BME280;49406;51.044;3.766;2022-08-03T00:40:21;101646.92;;;18.79;82.11
63281;BME280;49406;51.044;3.766;2022-08-03T00:42:58;101642.15;;;18.79;82.08
63281;BME280;49406;51.044;3.766;2022-08-03T00:45:34;101639.81;;;18.81;81.71
63281;BME280;49406;51.044;3.766;2022-08-03T00:48:11;101639.36;;;18.76;81.94
63281;BME280;49406;51.044;3.766;2022-08-03T00:50:45;101636.29;;;18.67;82.37
63281;BME280;49406;51.044;3.766;2022-08-03T00:53:20;101636.66;;;18.62;82.84
63281;BME280;49406;51.044;3.766;2022-08-03T00:55:54;101635.48;;;18.58;83.10
63281;BME280;49406;51.044;3.766;2022-08-03T00:58:29;101631.23;;;18.57;83.18
63281;BME280;49406;51.044;3.766;2022-08-03T01:01:04;101629.23;;;18.64;83.14
63281;BME280;49406;51.044;3.766;2022-08-03T01:03:39;101628.70;;;18.61;83.19
63281;BME280;49406;51.044;3.766;2022-08-03T01:06:18;101627.52;;;18.57;83.42
63281;BME280;49406;51.044;3.766;2022-08-03T01:09:01;101629.37;;;18.52;84.05
63281;BME280;49406;51.044;3.766;2022-08-03T01:11:39;101625.44;;;18.54;84.56
63281;BME280;49406;51.044;3.766;2022-08-03T01:14:23;101628.67;;;18.67;83.73
63281;BME280;49406;51.044;3.766;2022-08-03T01:17:01;101624.80;;;18.66;83.63
63281;BME280;49406;51.044;3.766;2022-08-03T01:19:44;101622.86;;;18.61;83.84
63281;BME280;49406;51.044;3.766;2022-08-03T01:22:39;101619.09;;;18.52;83.96
63281;BME280;49406;51.044;3.766;2022-08-03T01:25:31;101618.11;;;18.44;84.33
63281;BME280;49406;51.044;3.766;2022-08-03T01:28:27;101617.59;;;18.44;84.60
63281;BME280;49406;51.044;3.766;2022-08-03T01:31:07;101615.95;;;18.47;84.43
63281;BME280;49406;51.044;3.766;2022-08-03T01:33:49;101606.98;;;18.42;84.71
63281;BME280;49406;51.044;3.766;2022-08-03T01:36:33;101607.20;;;18.40;85.44
63281;BME280;49406;51.044;3.766;2022-08-03T01:39:08;101608.71;;;18.32;85.58
63281;BME280;49406;51.044;3.766;2022-08-03T01:41:47;101607.84;;;18.29;85.91
63281;BME280;49406;51.044;3.766;2022-08-03T01:44:24;101606.95;;;18.29;85.79
63281;BME280;49406;51.044;3.766;2022-08-03T01:47:00;101603.70;;;18.36;85.61
63281;BME280;49406;51.044;3.766;2022-08-03T01:49:37;101606.04;;;18.33;85.89
63281;BME280;49406;51.044;3.766;2022-08-03T02:02:13;101603.64;;;18.25;86.03
63281;BME280;49406;51.044;3.766;2022-08-03T02:04:49;101605.01;;;18.13;86.68
63281;BME280;49406;51.044;3.766;2022-08-03T02:07:26;101605.77;;;18.09;86.73
63281;BME280;49406;51.044;3.766;2022-08-03T02:10:05;101605.92;;;18.11;86.72
63281;BME280;49406;51.044;3.766;2022-08-03T02:12:43;101604.45;;;18.16;86.75
63281;BME280;49406;51.044;3.766;2022-08-03T02:15:19;101603.61;;;18.12;86.82
63281;BME280;49406;51.044;3.766;2022-08-03T02:17:56;101601.17;;;18.09;87.10
63281;BME280;49406;51.044;3.766;2022-08-03T02:20:31;101596.45;;;18.04;87.39
63281;BME280;49406;51.044;3.766;2022-08-03T02:23:08;101598.98;;;17.98;87.53
63281;BME280;49406;51.044;3.766;2022-08-03T02:25:49;101600.06;;;17.97;87.80
63281;BME280;49406;51.044;3.766;2022-08-03T02:28:31;101600.55;;;18.01;87.71
63281;BME280;49406;51.044;3.766;2022-08-03T02:31:10;101597.05;;;17.96;87.58
63281;BME280;49406;51.044;3.766;2022-08-03T02:33:50;101595.19;;;17.89;88.03
63281;BME280;49406;51.044;3.766;2022-08-03T02:36:29;101594.20;;;17.83;88.35
63281;BME280;49406;51.044;3.766;2022-08-03T02:39:05;101591.73;;;17.80;88.28
63281;BME280;49406;51.044;3.766;2022-08-03T02:41:44;101590.32;;;17.82;88.22
63281;BME280;49406;51.044;3.766;2022-08-03T02:44:22;101589.63;;;17.78;88.59
63281;BME280;49406;51.044;3.766;2022-08-03T02:47:02;101585.98;;;17.71;88.84
63281;BME280;49406;51.044;3.766;2022-08-03T02:49:38;101586.02;;;17.64;88.98
63281;BME280;49406;51.044;3.766;2022-08-03T02:52:14;101577.54;;;17.62;89.58
63281;BME280;49406;51.044;3.766;2022-08-03T02:54:52;101578.93;;;17.68;89.51
63281;BME280;49406;51.044;3.766;2022-08-03T02:57:29;101577.17;;;17.66;89.24
63281;BME280;49406;51.044;3.766;2022-08-03T03:00:06;101575.09;;;17.59;89.59
63281;BME280;49406;51.044;3.766;2022-08-03T03:02:41;101574.27;;;17.53;89.96
63281;BME280;49406;51.044;3.766;2022-08-03T03:05:17;101574.67;;;17.49;90.22
63281;BME280;49406;51.044;3.766;2022-08-03T03:07:51;101571.62;;;17.53;89.85
63281;BME280;49406;51.044;3.766;2022-08-03T03:10:27;101571.30;;;17.51;89.74
63281;BME280;49406;51.044;3.766;2022-08-03T03:13:01;101568.50;;;17.48;90.17
63281;BME280;49406;51.044;3.766;2022-08-03T03:15:36;101576.64;;;17.45;90.25
63281;BME280;49406;51.044;3.766;2022-08-03T03:18:13;101576.52;;;17.39;90.55
63281;BME280;49406;51.044;3.766;2022-08-03T03:20:48;101575.30;;;17.37;91.07
63281;BME280;49406;51.044;3.766;2022-08-03T03:23:25;101572.95;;;17.41;90.90
63281;BME280;49406;51.044;3.766;2022-08-03T03:26:01;101575.21;;;17.45;90.58
63281;BME280;49406;51.044;3.766;2022-08-03T03:28:36;101578.25;;;17.42;90.80
63281;BME280;49406;51.044;3.766;2022-08-03T03:31:11;101577.23;;;17.39;91.37
63281;BME280;49406;51.044;3.766;2022-08-03T03:33:46;101578.33;;;17.34;91.63
63281;BME280;49406;51.044;3.766;2022-08-03T03:36:21;101574.29;;;17.31;91.72
63281;BME280;49406;51.044;3.766;2022-08-03T03:38:55;101576.90;;;17.36;91.58
63281;BME280;49406;51.044;3.766;2022-08-03T03:41:30;101578.80;;;17.39;91.36
63281;BME280;49406;51.044;3.766;2022-08-03T03:44:05;101579.35;;;17.38;91.62
63281;BME280;49406;51.044;3.766;2022-08-03T03:46:40;101574.95;;;17.36;91.57
63281;BME280;49406;51.044;3.766;2022-08-03T03:49:15;101573.41;;;17.30;91.97
63281;BME280;49406;51.044;3.766;2022-08-03T03:51:50;101573.08;;;17.26;92.22
63281;BME280;49406;51.044;3.766;2022-08-03T03:54:25;101576.61;;;17.29;92.31
63281;BME280;49406;51.044;3.766;2022-08-03T03:56:59;101577.98;;;17.33;91.55
63281;BME280;49406;51.044;3.766;2022-08-03T03:59:38;101582.24;;;17.29;91.73
63281;BME280;49406;51.044;3.766;2022-08-03T04:02:12;101580.30;;;17.28;92.34
63281;BME280;49406;51.044;3.766;2022-08-03T04:04:47;101585.66;;;17.22;92.34
63281;BME280;49406;51.044;3.766;2022-08-03T04:07:45;101582.52;;;17.18;92.75
63281;BME280;49406;51.044;3.766;2022-08-03T04:10:40;101582.24;;;17.28;92.50
63281;BME280;49406;51.044;3.766;2022-08-03T04:13:36;101582.60;;;17.30;92.22
63281;BME280;49406;51.044;3.766;2022-08-03T04:16:14;101585.96;;;17.28;92.78
63281;BME280;49406;51.044;3.766;2022-08-03T04:18:52;101586.88;;;17.24;92.91
63281;BME280;49406;51.044;3.766;2022-08-03T04:21:29;101585.77;;;17.29;92.82
63281;BME280;49406;51.044;3.766;2022-08-03T04:24:05;101585.92;;;17.34;92.55
63281;BME280;49406;51.044;3.766;2022-08-03T04:26:42;101588.23;;;17.34;92.68
63281;BME280;49406;51.044;3.766;2022-08-03T04:29:19;101590.02;;;17.32;93.05
63281;BME280;49406;51.044;3.766;2022-08-03T04:31:55;101591.96;;;17.32;93.29
63281;BME280;49406;51.044;3.766;2022-08-03T04:34:32;101591.03;;;17.36;92.97
63281;BME280;49406;51.044;3.766;2022-08-03T04:37:11;101594.30;;;17.47;92.79
63281;BME280;49406;51.044;3.766;2022-08-03T04:39:49;101592.34;;;17.51;92.60
63281;BME280;49406;51.044;3.766;2022-08-03T04:42:24;101593.37;;;17.53;93.19
63281;BME280;49406;51.044;3.766;2022-08-03T04:44:59;101596.35;;;17.55;93.29
63281;BME280;49406;51.044;3.766;2022-08-03T04:47:36;101591.52;;;17.62;92.92
63281;BME280;49406;51.044;3.766;2022-08-03T04:50:11;101594.45;;;17.73;92.28
63281;BME280;49406;51.044;3.766;2022-08-03T04:52:46;101594.44;;;17.75;92.15
63281;BME280;49406;51.044;3.766;2022-08-03T04:55:27;101593.55;;;17.73;92.41
63281;BME280;49406;51.044;3.766;2022-08-03T04:58:03;101593.73;;;17.74;92.38
63281;BME280;49406;51.044;3.766;2022-08-03T05:00:38;101599.06;;;17.90;92.06
63281;BME280;49406;51.044;3.766;2022-08-03T05:03:12;101599.35;;;17.98;91.65
63281;BME280;49406;51.044;3.766;2022-08-03T05:05:47;101601.10;;;18.00;91.72
63281;BME280;49406;51.044;3.766;2022-08-03T05:08:21;101601.08;;;18.02;91.63
63281;BME280;49406;51.044;3.766;2022-08-03T05:10:56;101603.86;;;18.05;91.60
63281;BME280;49406;51.044;3.766;2022-08-03T05:13:31;101609.72;;;18.20;90.87
63281;BME280;49406;51.044;3.766;2022-08-03T05:16:06;101611.58;;;18.27;90.56
63281;BME280;49406;51.044;3.766;2022-08-03T05:18:40;101614.02;;;18.31;90.60
63281;BME280;49406;51.044;3.766;2022-08-03T05:21:15;101613.26;;;18.36;90.56
63281;BME280;49406;51.044;3.766;2022-08-03T05:23:50;101618.63;;;18.46;90.50
63281;BME280;49406;51.044;3.766;2022-08-03T05:26:24;101621.14;;;18.73;90.05
63281;BME280;49406;51.044;3.766;2022-08-03T05:28:58;101621.55;;;18.95;89.09
63281;BME280;49406;51.044;3.766;2022-08-03T05:31:33;101623.36;;;19.06;88.55
63281;BME280;49406;51.044;3.766;2022-08-03T05:34:07;101626.40;;;19.16;88.20
63281;BME280;49406;51.044;3.766;2022-08-03T05:36:42;101626.45;;;19.24;87.56
63281;BME280;49406;51.044;3.766;2022-08-03T05:39:16;101625.54;;;19.37;86.61
63281;BME280;49406;51.044;3.766;2022-08-03T05:41:51;101628.11;;;19.42;86.23
63281;BME280;49406;51.044;3.766;2022-08-03T05:44:25;101630.90;;;19.45;86.23
63281;BME280;49406;51.044;3.766;2022-08-03T05:47:00;101629.08;;;19.61;86.39
63281;BME280;49406;51.044;3.766;2022-08-03T05:49:34;101626.59;;;20.11;86.09
63281;BME280;49406;51.044;3.766;2022-08-03T05:52:10;101630.23;;;20.70;84.40
63281;BME280;49406;51.044;3.766;2022-08-03T05:54:44;101630.13;;;21.38;82.36
63281;BME280;49406;51.044;3.766;2022-08-03T05:57:18;101629.04;;;22.02;80.18
63281;BME280;49406;51.044;3.766;2022-08-03T05:59:53;101626.91;;;22.54;78.37
63281;BME280;49406;51.044;3.766;2022-08-03T06:02:28;101633.12;;;22.98;76.10
63281;BME280;49406;51.044;3.766;2022-08-03T06:05:02;101631.89;;;23.31;74.38
63281;BME280;49406;51.044;3.766;2022-08-03T06:07:37;101633.70;;;23.63;72.92
63281;BME280;49406;51.044;3.766;2022-08-03T06:10:12;101628.83;;;24.01;71.29
63281;BME280;49406;51.044;3.766;2022-08-03T06:12:46;101630.76;;;24.33;69.85
63281;BME280;49406;51.044;3.766;2022-08-03T06:15:21;101630.83;;;24.64;68.10
63281;BME280;49406;51.044;3.766;2022-08-03T06:17:56;101631.41;;;25.01;67.35
63281;BME280;49406;51.044;3.766;2022-08-03T06:20:30;101631.23;;;25.32;65.90
63281;BME280;49406;51.044;3.766;2022-08-03T06:23:05;101634.70;;;25.47;64.43
63281;BME280;49406;51.044;3.766;2022-08-03T06:25:39;101632.18;;;25.57;62.68
63281;BME280;49406;51.044;3.766;2022-08-03T06:28:14;101632.33;;;25.71;62.35
63281;BME280;49406;51.044;3.766;2022-08-03T06:30:50;101633.54;;;25.89;61.46
63281;BME280;49406;51.044;3.766;2022-08-03T06:33:24;101634.48;;;25.99;60.46
63281;BME280;49406;51.044;3.766;2022-08-03T06:35:59;101634.55;;;26.10;60.15
63281;BME280;49406;51.044;3.766;2022-08-03T06:38:33;101636.70;;;26.23;59.19
63281;BME280;49406;51.044;3.766;2022-08-03T06:41:07;101640.12;;;26.26;58.36
63281;BME280;49406;51.044;3.766;2022-08-03T06:43:42;101645.86;;;26.30;58.17
63281;BME280;49406;51.044;3.766;2022-08-03T06:46:16;101647.95;;;26.44;57.39
63281;BME280;49406;51.044;3.766;2022-08-03T06:48:51;101647.59;;;26.56;57.13
63281;BME280;49406;51.044;3.766;2022-08-03T06:51:26;101651.60;;;26.70;56.34
63281;BME280;49406;51.044;3.766;2022-08-03T06:54:01;101652.35;;;26.74;55.80
63281;BME280;49406;51.044;3.766;2022-08-03T06:56:35;101651.10;;;26.77;55.22
63281;BME280;49406;51.044;3.766;2022-08-03T06:59:10;101648.84;;;26.87;55.22
63281;BME280;49406;51.044;3.766;2022-08-03T07:01:44;101650.69;;;27.01;54.87
63281;BME280;49406;51.044;3.766;2022-08-03T07:04:19;101649.77;;;27.09;54.29
63281;BME280;49406;51.044;3.766;2022-08-03T07:06:53;101645.66;;;27.12;54.16
63281;BME280;49406;51.044;3.766;2022-08-03T07:09:28;101648.25;;;27.22;53.75
63281;BME280;49406;51.044;3.766;2022-08-03T07:12:03;101649.02;;;27.32;53.65
63281;BME280;49406;51.044;3.766;2022-08-03T07:14:38;101650.27;;;27.43;53.45
63281;BME280;49406;51.044;3.766;2022-08-03T07:17:13;101651.41;;;27.56;53.15
63281;BME280;49406;51.044;3.766;2022-08-03T07:19:47;101650.44;;;27.69;52.44
63281;BME280;49406;51.044;3.766;2022-08-03T07:22:22;101653.11;;;27.83;52.31
63281;BME280;49406;51.044;3.766;2022-08-03T07:24:56;101649.04;;;27.90;51.74
63281;BME280;49406;51.044;3.766;2022-08-03T07:27:31;101650.74;;;27.91;51.40
63281;BME280;49406;51.044;3.766;2022-08-03T07:30:09;101646.25;;;27.92;51.31
63281;BME280;49406;51.044;3.766;2022-08-03T07:32:43;101649.39;;;27.97;51.24
63281;BME280;49406;51.044;3.766;2022-08-03T07:35:18;101651.17;;;28.10;51.08
63281;BME280;49406;51.044;3.766;2022-08-03T07:37:52;101656.52;;;28.15;50.79
63281;BME280;49406;51.044;3.766;2022-08-03T07:40:27;101655.79;;;28.18;50.59
63281;BME280;49406;51.044;3.766;2022-08-03T07:43:02;101655.85;;;28.28;50.94
63281;BME280;49406;51.044;3.766;2022-08-03T07:45:37;101654.27;;;28.57;50.11
63281;BME280;49406;51.044;3.766;2022-08-03T07:48:11;101652.84;;;28.77;49.61
63281;BME280;49406;51.044;3.766;2022-08-03T07:50:46;101653.36;;;28.67;48.54
63281;BME280;49406;51.044;3.766;2022-08-03T07:53:21;101654.27;;;28.58;48.90
63281;BME280;49406;51.044;3.766;2022-08-03T07:55:55;101650.31;;;28.60;48.54
63281;BME280;49406;51.044;3.766;2022-08-03T07:58:30;101651.77;;;28.76;48.24
63281;BME280;49406;51.044;3.766;2022-08-03T08:01:05;101650.91;;;28.86;48.09
63281;BME280;49406;51.044;3.766;2022-08-03T08:03:39;101651.70;;;28.97;47.86
63281;BME280;49406;51.044;3.766;2022-08-03T08:06:15;101650.25;;;29.07;47.49
63281;BME280;49406;51.044;3.766;2022-08-03T08:08:49;101648.16;;;29.18;47.10
63281;BME280;49406;51.044;3.766;2022-08-03T08:11:24;101648.52;;;29.16;46.92
63281;BME280;49406;51.044;3.766;2022-08-03T08:13:58;101647.58;;;29.13;46.69
63281;BME280;49406;51.044;3.766;2022-08-03T08:16:34;101649.34;;;29.17;46.96
63281;BME280;49406;51.044;3.766;2022-08-03T08:19:09;101650.48;;;29.16;46.87
63281;BME280;49406;51.044;3.766;2022-08-03T08:21:44;101647.02;;;29.29;46.87
63281;BME280;49406;51.044;3.766;2022-08-03T08:24:18;101640.74;;;29.41;46.32
63281;BME280;49406;51.044;3.766;2022-08-03T08:26:53;101644.58;;;29.47;46.38
63281;BME280;49406;51.044;3.766;2022-08-03T08:29:27;101648.77;;;29.52;46.24
63281;BME280;49406;51.044;3.766;2022-08-03T08:32:02;101643.90;;;29.52;45.41
63281;BME280;49406;51.044;3.766;2022-08-03T08:34:36;101646.57;;;29.59;45.74
63281;BME280;49406;51.044;3.766;2022-08-03T08:37:11;101647.61;;;29.59;45.98
63281;BME280;49406;51.044;3.766;2022-08-03T08:39:45;101647.09;;;29.59;45.86
63281;BME280;49406;51.044;3.766;2022-08-03T08:42:20;101650.14;;;29.69;45.21
63281;BME280;49406;51.044;3.766;2022-08-03T08:44:55;101642.71;;;29.84;45.42
63281;BME280;49406;51.044;3.766;2022-08-03T08:47:31;101637.71;;;30.01;44.79
63281;BME280;49406;51.044;3.766;2022-08-03T08:50:08;101634.84;;;30.16;44.35
63281;BME280;49406;51.044;3.766;2022-08-03T08:52:47;101636.81;;;30.25;43.86
63281;BME280;49406;51.044;3.766;2022-08-03T08:55:22;101637.06;;;30.36;43.94
63281;BME280;49406;51.044;3.766;2022-08-03T08:58:00;101637.21;;;30.39;43.49
63281;BME280;49406;51.044;3.766;2022-08-03T09:00:35;101636.81;;;30.43;43.21
63281;BME280;49406;51.044;3.766;2022-08-03T09:03:09;101634.00;;;30.38;42.90
63281;BME280;49406;51.044;3.766;2022-08-03T09:05:46;101629.58;;;30.49;42.80
63281;BME280;49406;51.044;3.766;2022-08-03T09:08:21;101627.66;;;30.65;43.12
63281;BME280;49406;51.044;3.766;2022-08-03T09:10:56;101632.28;;;30.97;43.13
63281;BME280;49406;51.044;3.766;2022-08-03T09:13:31;101639.26;;;31.17;42.50
63281;BME280;49406;51.044;3.766;2022-08-03T09:16:14;101631.67;;;31.26;41.45
63281;BME280;49406;51.044;3.766;2022-08-03T09:18:51;101627.48;;;31.24;41.33
63281;BME280;49406;51.044;3.766;2022-08-03T09:21:27;101629.35;;;31.23;41.22
63281;BME280;49406;51.044;3.766;2022-08-03T09:24:03;101633.64;;;31.15;41.30
63281;BME280;49406;51.044;3.766;2022-08-03T09:26:38;101633.58;;;31.10;41.01
63281;BME280;49406;51.044;3.766;2022-08-03T09:36:36;101624.54;;;31.65;40.91
63281;BME280;49406;51.044;3.766;2022-08-03T09:39:12;101620.19;;;31.81;40.04
63281;BME280;49406;51.044;3.766;2022-08-03T09:41:49;101620.59;;;31.91;39.68
63281;BME280;49406;51.044;3.766;2022-08-03T09:44:38;101618.64;;;32.00;39.11
63281;BME280;49406;51.044;3.766;2022-08-03T09:47:15;101622.33;;;32.18;38.41
63281;BME280;49406;51.044;3.766;2022-08-03T09:49:58;101616.95;;;32.17;38.87
63281;BME280;49406;51.044;3.766;2022-08-03T09:52:36;101618.27;;;32.26;38.04
63281;BME280;49406;51.044;3.766;2022-08-03T09:55:12;101621.45;;;32.22;37.76
63281;BME280;49406;51.044;3.766;2022-08-03T09:57:47;101618.92;;;32.17;38.46
63281;BME280;49406;51.044;3.766;2022-08-03T10:00:22;101616.23;;;32.37;38.18
63281;BME280;49406;51.044;3.766;2022-08-03T10:03:04;101614.60;;;32.55;37.53
63281;BME280;49406;51.044;3.766;2022-08-03T10:05:39;101610.61;;;32.65;37.00
63281;BME280;49406;51.044;3.766;2022-08-03T10:08:17;101611.20;;;32.80;36.46
63281;BME280;49406;51.044;3.766;2022-08-03T10:10:52;101612.66;;;32.80;37.07
63281;BME280;49406;51.044;3.766;2022-08-03T10:13:27;101611.59;;;32.92;36.58
63281;BME280;49406;51.044;3.766;2022-08-03T10:16:02;101611.96;;;32.99;35.88
63281;BME280;49406;51.044;3.766;2022-08-03T10:18:38;101612.41;;;33.07;36.27
63281;BME280;49406;51.044;3.766;2022-08-03T10:31:13;101596.17;;;33.78;35.06
63281;BME280;49406;51.044;3.766;2022-08-03T10:33:50;101596.21;;;33.72;34.29
63281;BME280;49406;51.044;3.766;2022-08-03T10:36:30;101592.90;;;33.75;34.22
63281;BME280;49406;51.044;3.766;2022-08-03T10:39:06;101590.72;;;33.73;34.60
63281;BME280;49406;51.044;3.766;2022-08-03T10:41:42;101590.79;;;33.98;34.55
63281;BME280;49406;51.044;3.766;2022-08-03T10:44:22;101590.48;;;34.23;34.29
63281;BME280;49406;51.044;3.766;2022-08-03T10:46:57;101584.15;;;34.31;33.63
63281;BME280;49406;51.044;3.766;2022-08-03T10:49:32;101582.34;;;34.22;33.71
63281;BME280;49406;51.044;3.766;2022-08-03T10:52:07;101577.35;;;34.35;34.04
63281;BME280;49406;51.044;3.766;2022-08-03T10:54:44;101579.34;;;34.64;33.99
63281;BME280;49406;51.044;3.766;2022-08-03T10:57:49;101582.16;;;34.76;33.44
63281;BME280;49406;51.044;3.766;2022-08-03T11:00:26;101574.85;;;34.79;32.97
63281;BME280;49406;51.044;3.766;2022-08-03T11:03:07;101570.96;;;34.77;33.16
63281;BME280;49406;51.044;3.766;2022-08-03T11:05:43;101570.33;;;34.83;33.20
63281;BME280;49406;51.044;3.766;2022-08-03T11:08:26;101571.23;;;34.85;32.94
63281;BME280;49406;51.044;3.766;2022-08-03T11:11:23;101564.55;;;34.87;32.76
63281;BME280;49406;51.044;3.766;2022-08-03T11:14:02;101564.30;;;35.03;32.77
63281;BME280;49406;51.044;3.766;2022-08-03T11:16:38;101562.86;;;35.20;32.83
63281;BME280;49406;51.044;3.766;2022-08-03T11:19:15;101557.69;;;35.32;32.18
63281;BME280;49406;51.044;3.766;2022-08-03T11:21:57;101551.01;;;35.38;32.17
63281;BME280;49406;51.044;3.766;2022-08-03T11:25:02;101547.78;;;35.54;32.17
63281;BME280;49406;51.044;3.766;2022-08-03T11:27:36;101547.48;;;35.71;31.64
63281;BME280;49406;51.044;3.766;2022-08-03T11:30:21;101547.74;;;35.61;31.23
63281;BME280;49406;51.044;3.766;2022-08-03T11:33:01;101545.59;;;35.59;31.01
63281;BME280;49406;51.044;3.766;2022-08-03T11:35:56;101551.42;;;35.69;31.29
63281;BME280;49406;51.044;3.766;2022-08-03T11:38:30;101547.98;;;35.75;31.08
63281;BME280;49406;51.044;3.766;2022-08-03T11:41:04;101547.11;;;35.49;30.71
63281;BME280;49406;51.044;3.766;2022-08-03T11:43:46;101545.89;;;35.36;31.16
63281;BME280;49406;51.044;3.766;2022-08-03T11:46:20;101538.27;;;35.55;31.35
63281;BME280;49406;51.044;3.766;2022-08-03T11:49:04;101539.98;;;35.73;31.15
63281;BME280;49406;51.044;3.766;2022-08-03T11:51:39;101547.34;;;35.80;31.32
63281;BME280;49406;51.044;3.766;2022-08-03T11:54:14;101546.33;;;35.86;30.70
63281;BME280;49406;51.044;3.766;2022-08-03T11:56:52;101545.27;;;35.77;30.71
63281;BME280;49406;51.044;3.766;2022-08-03T11:59:33;101536.97;;;35.55;30.58
63281;BME280;49406;51.044;3.766;2022-08-03T12:02:09;101537.23;;;35.50;31.30
63281;BME280;49406;51.044;3.766;2022-08-03T12:04:54;101542.52;;;35.65;31.35
63281;BME280;49406;51.044;3.766;2022-08-03T12:07:30;101540.65;;;35.84;30.83
63281;BME280;49406;51.044;3.766;2022-08-03T12:17:13;101544.14;;;36.37;29.82
63281;BME280;49406;51.044;3.766;2022-08-03T12:19:48;101540.78;;;36.44;29.71
63281;BME280;49406;51.044;3.766;2022-08-03T12:22:32;101540.95;;;36.16;29.59
63281;BME280;49406;51.044;3.766;2022-08-03T12:25:09;101535.84;;;35.45;29.69
63281;BME280;49406;51.044;3.766;2022-08-03T12:27:55;101533.30;;;34.85;30.77
63281;BME280;49406;51.044;3.766;2022-08-03T12:30:40;101535.49;;;34.63;31.37
63281;BME280;49406;51.044;3.766;2022-08-03T12:33:20;101531.83;;;34.45;31.20
63281;BME280;49406;51.044;3.766;2022-08-03T12:36:05;101535.45;;;34.12;31.98
63281;BME280;49406;51.044;3.766;2022-08-03T12:38:40;101529.86;;;33.82;32.14
63281;BME280;49406;51.044;3.766;2022-08-03T12:41:15;101528.71;;;33.66;33.14
63281;BME280;49406;51.044;3.766;2022-08-03T12:43:58;101529.05;;;34.06;32.87
63281;BME280;49406;51.044;3.766;2022-08-03T12:46:35;101532.84;;;34.35;32.60
63281;BME280;49406;51.044;3.766;2022-08-03T12:49:12;101527.24;;;34.60;31.83
63281;BME280;49406;51.044;3.766;2022-08-03T12:52:00;101527.48;;;34.65;32.31
63281;BME280;49406;51.044;3.766;2022-08-03T12:54:34;101527.61;;;34.92;32.49
63281;BME280;49406;51.044;3.766;2022-08-03T12:57:10;101530.25;;;35.13;31.84
63281;BME280;49406;51.044;3.766;2022-08-03T12:59:46;101521.69;;;35.34;31.89
63281;BME280;49406;51.044;3.766;2022-08-03T13:02:22;101516.23;;;35.70;31.52
63281;BME280;49406;51.044;3.766;2022-08-03T13:04:57;101521.08;;;35.94;31.09
63281;BME280;49406;51.044;3.766;2022-08-03T13:07:40;101517.11;;;35.97;30.34
63281;BME280;49406;51.044;3.766;2022-08-03T13:10:28;101513.09;;;35.71;30.50
63281;BME280;49406;51.044;3.766;2022-08-03T13:13:03;101510.59;;;35.34;31.28
63281;BME280;49406;51.044;3.766;2022-08-03T13:15:38;101515.05;;;34.97;31.29
63281;BME280;49406;51.044;3.766;2022-08-03T13:18:13;101512.54;;;34.55;31.66
63281;BME280;49406;51.044;3.766;2022-08-03T13:20:47;101508.54;;;34.17;32.21
63281;BME280;49406;51.044;3.766;2022-08-03T13:23:22;101506.66;;;34.11;32.44
63281;BME280;49406;51.044;3.766;2022-08-03T13:25:56;101504.16;;;34.31;32.47
63281;BME280;49406;51.044;3.766;2022-08-03T13:28:31;101496.45;;;34.46;31.82
63281;BME280;49406;51.044;3.766;2022-08-03T13:31:05;101496.44;;;34.56;31.97
63281;BME280;49406;51.044;3.766;2022-08-03T13:33:40;101492.59;;;34.90;31.61
63281;BME280;49406;51.044;3.766;2022-08-03T13:36:15;101483.17;;;35.21;31.69
63281;BME280;49406;51.044;3.766;2022-08-03T13:38:49;101486.86;;;35.36;31.96
63281;BME280;49406;51.044;3.766;2022-08-03T13:41:23;101483.02;;;35.61;31.31
63281;BME280;49406;51.044;3.766;2022-08-03T13:43:58;101479.19;;;35.86;30.55
63281;BME280;49406;51.044;3.766;2022-08-03T13:46:32;101479.45;;;35.87;30.46
63281;BME280;49406;51.044;3.766;2022-08-03T13:49:07;101471.60;;;35.73;30.54
63281;BME280;49406;51.044;3.766;2022-08-03T13:51:42;101470.70;;;35.54;30.06
63281;BME280;49406;51.044;3.766;2022-08-03T13:54:16;101471.10;;;35.31;30.26
63281;BME280;49406;51.044;3.766;2022-08-03T13:56:51;101467.40;;;35.33;30.43
63281;BME280;49406;51.044;3.766;2022-08-03T13:59:26;101466.11;;;35.53;30.66
63281;BME280;49406;51.044;3.766;2022-08-03T14:02:00;101462.36;;;35.74;30.45
63281;BME280;49406;51.044;3.766;2022-08-03T14:04:35;101463.97;;;35.93;29.79
63281;BME280;49406;51.044;3.766;2022-08-03T14:07:09;101458.21;;;35.91;29.42
63281;BME280;49406;51.044;3.766;2022-08-03T14:09:46;101460.89;;;35.97;29.78
63281;BME280;49406;51.044;3.766;2022-08-03T14:12:20;101458.12;;;36.24;29.52
63281;BME280;49406;51.044;3.766;2022-08-03T14:14:55;101450.77;;;36.58;29.31